Time;durP1;ratioP1;P1;durP2;ratioP2;P2;SDS_P1;SDS_P2;PMS_P1;PMS_P2;Temp;Humidity;BMP_temperature;BMP_pressure;BME280_temperature;BME280_humidity;BME280_pressure;Samples;Min_cycle;Max_cycle;Signal;HPM_P1;HPM_P2
2023/03/12 00:01:47;;;;;;;;;16.00;15.00;;;;;10.87;100.00;100552.81;5007333;28;45430;-81
2023/03/12 00:04:12;;;;;;;;;15.33;12.67;;;;;10.75;100.00;100532.59;5016732;28;45645;-79
2023/03/12 00:06:38;;;;;;;;;12.33;12.33;;;;;10.88;100.00;100554.50;5027494;28;46689;-80
2023/03/12 00:09:05;;;;;;;;;16.33;12.33;;;;;10.92;100.00;100554.91;4983005;28;45622;-80
2023/03/12 00:11:30;;;;;;;;;11.33;10.00;;;;;10.89;100.00;100544.38;5017462;28;45665;-80
2023/03/12 00:13:59;;;;;;;;;11.67;9.00;;;;;10.88;100.00;100542.69;5000145;28;46016;-82
2023/03/12 00:16:26;;;;;;;;;13.33;10.33;;;;;10.97;100.00;100563.31;5011298;28;46170;-81
2023/03/12 00:18:53;;;;;;;;;15.67;13.67;;;;;10.94;100.00;100542.66;4999410;28;45900;-78
2023/03/12 00:21:20;;;;;;;;;11.00;9.00;;;;;11.04;100.00;100558.66;5013819;28;45723;-79
2023/03/12 00:23:48;;;;;;;;;10.00;9.67;;;;;10.99;100.00;100538.41;4992552;28;45913;-79
2023/03/12 00:26:15;;;;;;;;;9.67;8.67;;;;;11.06;100.00;100540.09;5005700;28;47268;-80
2023/03/12 00:28:41;;;;;;;;;12.00;12.00;;;;;10.87;100.00;100505.34;4996768;28;45421;-79
2023/03/12 00:31:14;;;;;;;;;8.00;6.00;;;;;11.14;100.00;100547.25;5027170;28;45687;-78
2023/03/12 00:33:40;;;;;;;;;9.00;9.00;;;;;11.15;100.00;100546.16;5009769;28;45816;-78
2023/03/12 00:36:06;;;;;;;;;10.67;10.67;;;;;11.09;100.00;100525.06;4989795;28;47157;-79
2023/03/12 00:38:31;;;;;;;;;10.67;10.67;;;;;11.18;100.00;100539.41;5014470;28;45790;-78
2023/03/12 00:40:56;;;;;;;;;16.67;13.67;;;;;11.16;100.00;100545.09;5015169;28;45577;-79
2023/03/12 00:43:22;;;;;;;;;12.00;9.33;;;;;11.04;100.00;100533.97;4997873;28;45935;-79
2023/03/12 00:45:47;;;;;;;;;14.00;12.33;;;;;10.86;100.00;100522.84;4995918;28;45914;-80
2023/03/12 00:48:13;;;;;;;;;12.67;9.67;;;;;11.01;100.00;100558.25;4999382;28;45424;-80
2023/03/12 00:50:38;;;;;;;;;10.33;9.67;;;;;11.04;100.00;100561.41;5006092;28;45474;-79
2023/03/12 00:53:03;;;;;;;;;11.33;11.00;;;;;11.14;100.00;100571.94;4997481;28;45968;-77
2023/03/12 00:55:29;;;;;;;;;14.00;11.67;;;;;11.15;100.00;100578.25;5004666;28;45312;-77
2023/03/12 00:57:55;;;;;;;;;14.33;12.00;;;;;11.02;100.00;100555.31;5002984;28;45426;-78
2023/03/12 01:00:20;;;;;;;;;10.33;10.33;;;;;11.05;100.00;100554.88;5005752;28;45491;-78
2023/03/12 01:02:46;;;;;;;;;12.33;9.33;;;;;11.12;100.00;100568.53;5018435;28;45783;-77
2023/03/12 01:05:13;;;;;;;;;9.33;9.33;;;;;10.94;100.00;100555.53;4992649;28;46894;-78
2023/03/12 01:07:39;;;;;;;;;10.00;9.67;;;;;10.78;100.00;100554.13;5013031;28;45904;-77
2023/03/12 01:10:05;;;;;;;;;12.00;8.00;;;;;10.84;100.00;100574.34;5007299;28;45528;-76
2023/03/12 01:12:31;;;;;;;;;11.67;9.00;;;;;10.77;100.00;100577.94;5021881;28;45490;-77
2023/03/12 01:14:56;;;;;;;;;11.33;8.00;;;;;10.77;100.00;100577.09;5002882;28;46970;-77
2023/03/12 01:17:22;;;;;;;;;8.00;7.67;;;;;10.77;100.00;100591.66;5007831;28;46322;-76
2023/03/12 01:19:47;;;;;;;;;11.33;9.33;;;;;10.80;100.00;100586.81;5013183;28;45893;-75
2023/03/12 01:22:13;;;;;;;;;10.33;8.67;;;;;10.82;100.00;100579.19;5004176;28;45461;-78
2023/03/12 01:24:38;;;;;;;;;10.67;9.00;;;;;10.74;100.00;100581.13;5003221;28;45830;-78
2023/03/12 01:27:04;;;;;;;;;10.67;8.33;;;;;10.75;100.00;100582.81;5013277;28;45665;-76
2023/03/12 01:29:29;;;;;;;;;11.00;10.67;;;;;10.70;100.00;100573.53;5001643;28;45568;-77
2023/03/12 01:31:54;;;;;;;;;13.00;10.00;;;;;10.75;100.00;100582.81;5012848;28;45370;-76
2023/03/12 01:34:20;;;;;;;;;9.67;7.67;;;;;10.76;100.00;100589.13;5016764;28;46519;-77
2023/03/12 01:36:46;;;;;;;;;9.33;8.67;;;;;10.76;100.00;100592.72;5011174;28;45691;-77
2023/03/12 01:39:12;;;;;;;;;12.00;9.67;;;;;10.82;100.00;100599.25;4983968;28;45805;-77
2023/03/12 01:41:38;;;;;;;;;12.00;8.00;;;;;10.87;100.00;100590.41;5022737;28;45891;-77
2023/03/12 01:44:04;;;;;;;;;11.00;6.00;;;;;10.88;100.00;100592.06;5004830;28;45821;-79
2023/03/12 01:46:34;;;;;;;;;12.33;9.67;;;;;10.87;100.00;100585.75;5010258;28;45515;-78
2023/03/12 01:49:17;;;;;;;;;10.67;8.33;;;;;10.85;100.00;100581.50;4993919;28;45798;-77
2023/03/12 01:51:55;;;;;;;;;11.00;7.67;;;;;10.76;100.00;100579.03;5010649;28;45861;-78
2023/03/12 01:54:25;;;;;;;;;8.33;5.33;;;;;10.70;100.00;100584.50;5011498;28;46134;-78
2023/03/12 01:56:53;;;;;;;;;9.00;6.00;;;;;10.60;100.00;100577.56;5018106;28;45766;-78
2023/03/12 01:59:28;;;;;;;;;7.00;7.00;;;;;10.52;100.00;100576.94;5004401;28;45907;-77
2023/03/12 02:01:53;;;;;;;;;9.33;7.33;;;;;10.46;100.00;100577.78;5007377;28;45629;-78
2023/03/12 02:04:22;;;;;;;;;8.33;6.00;;;;;10.37;100.00;100578.03;5008045;28;45884;-77
2023/03/12 02:06:56;;;;;;;;;9.33;7.00;;;;;10.35;100.00;100577.38;4996102;28;45707;-77
2023/03/12 02:09:23;;;;;;;;;12.33;8.00;;;;;10.32;100.00;100572.28;5008550;28;45792;-77
2023/03/12 02:11:48;;;;;;;;;9.00;7.33;;;;;10.29;100.00;100572.72;4997535;28;46231;-77
2023/03/12 02:14:14;;;;;;;;;7.67;5.67;;;;;10.26;100.00;100573.13;5008403;28;46358;-78
2023/03/12 02:16:40;;;;;;;;;9.00;6.00;;;;;10.22;100.00;100571.84;5011576;28;45792;-76
2023/03/12 02:19:16;;;;;;;;;8.33;7.00;;;;;10.18;100.00;100570.59;5010850;28;45840;-77
2023/03/12 02:21:42;;;;;;;;;10.00;8.00;;;;;10.15;100.00;100571.88;5006983;28;45368;-77
2023/03/12 02:24:37;;;;;;;;;5.00;4.00;;;;;10.12;100.00;100582.38;5008313;28;46011;-78
2023/03/12 02:27:05;;;;;;;;;7.00;5.00;;;;;10.11;100.00;100591.69;4999104;28;45350;-84
2023/03/12 02:29:33;;;;;;;;;9.33;7.67;;;;;10.11;100.00;100587.03;5025212;28;45408;-84
2023/03/12 02:32:01;;;;;;;;;8.00;6.00;;;;;9.98;100.00;100568.69;5006293;28;46362;-84
2023/03/12 02:34:26;;;;;;;;;6.33;6.00;;;;;10.07;100.00;100589.38;5007611;28;48124;-84
2023/03/12 02:36:52;;;;;;;;;7.00;7.00;;;;;10.04;100.00;100573.34;5027186;28;45702;-84
2023/03/12 02:39:18;;;;;;;;;8.00;6.67;;;;;10.18;100.00;100592.50;5027965;28;45319;-83
2023/03/12 02:41:56;;;;;;;;;6.67;5.00;;;;;10.26;100.00;100600.53;5021946;28;45349;-84
2023/03/12 02:44:28;;;;;;;;;7.00;7.00;;;;;10.34;100.00;100586.63;5002545;28;46076;-83
2023/03/12 02:46:56;;;;;;;;;8.33;6.33;;;;;10.43;100.00;100595.50;5014022;28;45408;-85
2023/03/12 02:49:25;;;;;;;;;10.00;5.33;;;;;10.51;100.00;100606.25;5010395;28;45749;-85
2023/03/12 02:51:51;;;;;;;;;10.00;6.00;;;;;10.55;100.00;100591.09;5026905;28;45889;-85
2023/03/12 02:54:18;;;;;;;;;8.33;6.67;;;;;10.69;100.00;100605.59;5006785;28;45425;-83
2023/03/12 02:56:44;;;;;;;;;6.00;5.33;;;;;10.76;100.00;100600.97;5011530;28;45407;-84
2023/03/12 02:59:12;;;;;;;;;7.67;5.33;;;;;10.82;100.00;100604.72;4999326;28;45773;-84
2023/03/12 03:01:38;;;;;;;;;9.33;6.33;;;;;10.81;100.00;100585.75;5001657;28;47083;-85
2023/03/12 03:04:06;;;;;;;;;9.33;7.33;;;;;10.96;100.00;100600.06;5005192;28;46022;-82
2023/03/12 03:06:34;;;;;;;;;12.33;7.67;;;;;11.01;100.00;100599.44;5007622;28;45475;-84
2023/03/12 03:08:59;;;;;;;;;6.33;6.00;;;;;11.06;100.00;100603.22;5023674;28;45427;-83
2023/03/12 03:11:25;;;;;;;;;8.67;7.00;;;;;11.10;100.00;100595.38;5000617;28;45416;-84
2023/03/12 03:13:52;;;;;;;;;8.00;5.00;;;;;11.12;100.00;100591.38;5006018;28;45378;-83
2023/03/12 03:16:17;;;;;;;;;7.67;4.00;;;;;11.02;100.00;100566.28;5017896;28;45357;-82
2023/03/12 03:18:43;;;;;;;;;7.67;6.00;;;;;11.22;100.00;100596.38;5018960;28;45466;-84
2023/03/12 03:21:09;;;;;;;;;12.00;6.33;;;;;11.24;100.00;100601.66;5019646;28;45352;-84
2023/03/12 03:23:36;;;;;;;;;10.33;6.67;;;;;11.27;100.00;100598.47;5002920;28;47402;-84
2023/03/12 03:26:02;;;;;;;;;7.00;5.00;;;;;11.30;100.00;100603.53;5014886;28;45376;-83
2023/03/12 03:28:29;;;;;;;;;12.00;8.33;;;;;11.26;100.00;100594.91;5018714;28;45715;-84
2023/03/12 03:30:59;;;;;;;;;9.67;7.00;;;;;11.30;100.00;100606.28;5032986;28;45324;-85
2023/03/12 03:33:25;;;;;;;;;7.00;5.00;;;;;11.27;100.00;100613.06;5000843;28;47084;-84
2023/03/12 03:35:50;;;;;;;;;10.33;6.00;;;;;11.22;100.00;100631.25;5026911;28;45686;-84
2023/03/12 03:38:16;;;;;;;;;9.67;5.33;;;;;11.03;100.00;100600.03;5006386;28;45315;-83
2023/03/12 03:40:42;;;;;;;;;8.67;5.00;;;;;11.02;100.00;100618.41;5004199;28;45160;-84
2023/03/12 03:43:07;;;;;;;;;8.67;4.33;;;;;10.89;100.00;100611.03;5010154;28;45408;-82
2023/03/12 03:45:33;;;;;;;;;6.00;5.67;;;;;10.88;100.00;100630.47;5011345;28;45440;-83
2023/03/12 03:47:59;;;;;;;;;8.67;5.33;;;;;10.79;100.00;100618.88;5016487;28;45306;-84
2023/03/12 03:50:24;;;;;;;;;10.00;6.00;;;;;10.60;100.00;100612.38;5014331;28;45911;-86
2023/03/12 03:52:50;;;;;;;;;8.67;8.67;;;;;10.57;100.00;100619.13;5022514;28;46385;-82
2023/03/12 03:55:16;;;;;;;;;10.00;7.00;;;;;10.52;100.00;100626.28;5022654;28;45751;-84
2023/03/12 03:57:41;;;;;;;;;6.00;5.00;;;;;10.58;100.00;100636.41;5022447;28;45222;-84
2023/03/12 04:00:08;;;;;;;;;9.67;6.33;;;;;10.52;100.00;100632.59;5021965;28;45339;-84
2023/03/12 04:02:34;;;;;;;;;8.67;5.00;;;;;10.52;100.00;100640.84;5021974;28;47015;-85
2023/03/12 04:05:00;;;;;;;;;5.00;5.00;;;;;10.48;100.00;100661.53;4979128;28;45422;-84
2023/03/12 04:07:27;;;;;;;;;7.67;4.67;;;;;10.41;100.00;100663.41;5010790;28;45379;-85
2023/03/12 04:09:53;;;;;;;;;5.00;4.67;;;;;10.31;100.00;100657.47;5031022;28;45485;-84
2023/03/12 04:12:19;;;;;;;;;6.67;4.00;;;;;10.35;100.00;100678.78;5019839;28;45748;-84
2023/03/12 04:14:44;;;;;;;;;7.33;5.00;;;;;10.27;100.00;100668.03;5013669;28;45325;-84
2023/03/12 04:17:10;;;;;;;;;6.67;6.00;;;;;10.30;100.00;100672.22;5018624;28;45737;-85
2023/03/12 04:19:35;;;;;;;;;6.00;4.67;;;;;10.25;100.00;100667.38;5004567;28;45654;-84
2023/03/12 04:22:01;;;;;;;;;11.67;6.00;;;;;10.29;100.00;100682.34;5002503;28;47373;-85
2023/03/12 04:24:27;;;;;;;;;9.33;5.67;;;;;10.20;100.00;100672.63;5031711;28;45383;-84
2023/03/12 04:26:52;;;;;;;;;9.67;7.67;;;;;10.15;100.00;100681.50;5026031;28;45324;-84
2023/03/12 04:29:18;;;;;;;;;7.67;7.00;;;;;10.15;100.00;100683.38;5017318;28;45261;-84
2023/03/12 04:31:44;;;;;;;;;8.00;5.00;;;;;10.10;100.00;100699.59;5009639;28;46997;-83
2023/03/12 04:34:11;;;;;;;;;12.33;5.33;;;;;10.12;100.00;100700.22;5027041;28;45404;-83
2023/03/12 04:36:36;;;;;;;;;15.00;7.00;;;;;10.17;100.00;100700.47;5007484;28;45398;-83
2023/03/12 04:39:05;;;;;;;;;10.67;5.00;;;;;10.26;100.00;100701.94;5020138;28;45467;-84
2023/03/12 04:41:31;;;;;;;;;8.33;7.33;;;;;10.31;100.00;100713.13;5030551;28;45666;-85
2023/03/12 04:43:56;;;;;;;;;9.33;6.00;;;;;10.19;100.00;100699.19;5014284;28;45563;-83
2023/03/12 04:46:22;;;;;;;;;11.33;6.00;;;;;10.35;100.00;100719.91;5022524;28;44990;-83
2023/03/12 04:48:47;;;;;;;;;7.33;7.00;;;;;10.39;100.00;100723.94;5007299;28;45412;-85
2023/03/12 04:51:12;;;;;;;;;10.00;5.33;;;;;10.34;100.00;100717.38;5001327;28;47362;-86
2023/03/12 04:53:39;;;;;;;;;7.33;5.67;;;;;10.44;100.00;100717.81;5025565;28;45371;-84
2023/03/12 04:56:05;;;;;;;;;7.67;5.67;;;;;10.50;100.00;100721.63;5034867;28;45490;-86
2023/03/12 04:58:30;;;;;;;;;4.00;3.00;;;;;10.47;100.00;100713.84;5017707;28;45473;-82
2023/03/12 05:00:56;;;;;;;;;9.00;5.33;;;;;10.60;100.00;100724.81;5009234;28;46811;-85
2023/03/12 05:03:21;;;;;;;;;8.67;4.00;;;;;10.55;100.00;100708.13;5016132;28;45684;-85
2023/03/12 05:05:47;;;;;;;;;5.67;4.00;;;;;10.65;100.00;100718.69;5012631;28;45479;-85
2023/03/12 05:08:12;;;;;;;;;9.33;5.67;;;;;10.71;100.00;100729.66;5023489;28;45828;-84
2023/03/12 05:10:38;;;;;;;;;6.00;5.00;;;;;10.78;100.00;100724.19;5035579;28;46134;-85
2023/03/12 05:13:21;;;;;;;;;5.33;4.00;;;;;10.72;100.00;100708.56;5021819;28;45439;-84
2023/03/12 05:15:49;;;;;;;;;8.67;3.67;;;;;10.81;100.00;100729.25;5019154;28;44835;-83
2023/03/12 05:18:15;;;;;;;;;8.33;5.00;;;;;10.93;100.00;100743.19;5025093;28;46033;-85
2023/03/12 05:20:41;;;;;;;;;6.67;5.00;;;;;11.00;100.00;100738.50;5001331;28;45759;-84
2023/03/12 05:23:06;;;;;;;;;7.67;4.67;;;;;10.96;100.00;100731.78;5030028;28;45410;-84
2023/03/12 05:25:32;;;;;;;;;7.00;3.67;;;;;11.09;100.00;100739.16;5001593;28;45279;-84
2023/03/12 05:27:57;;;;;;;;;13.00;6.33;;;;;11.16;100.00;100741.91;5008928;28;46054;-85
2023/03/12 05:30:23;;;;;;;;;12.00;7.00;;;;;11.07;100.00;100722.88;5007601;28;47118;-84
2023/03/12 05:32:52;;;;;;;;;5.00;4.00;;;;;11.15;100.00;100729.22;4989248;28;45333;-85
2023/03/12 05:35:19;;;;;;;;;9.33;6.00;;;;;11.19;100.00;100746.97;5015302;28;45855;-87
2023/03/12 05:37:44;;;;;;;;;9.67;7.00;;;;;11.18;100.00;100751.59;5011275;28;46121;-86
2023/03/12 05:40:11;;;;;;;;;5.67;4.67;;;;;11.24;100.00;100758.13;5011847;28;47709;-87
2023/03/12 05:42:37;;;;;;;;;9.33;6.67;;;;;11.19;100.00;100750.53;5017413;28;45552;-86
2023/03/12 05:45:18;;;;;;;;;;;;;;;;;;;;;
2023/03/12 05:47:59;;;;;;;;;8.00;4.00;;;;;11.27;100.00;100757.72;5007629;28;73473;-84
2023/03/12 05:50:26;;;;;;;;;7.67;4.33;;;;;11.06;100.00;100729.47;5005294;28;45557;-86
2023/03/12 05:52:53;;;;;;;;;7.67;6.00;;;;;10.98;100.00;100710.44;5021535;28;45424;-85
2023/03/12 05:55:20;;;;;;;;;4.33;3.00;;;;;10.98;100.00;100695.91;5007349;28;45487;-85
2023/03/12 05:58:21;;;;;;;;;5.00;3.67;;;;;11.34;100.00;100753.06;5022512;28;45620;-88
2023/03/12 06:00:56;;;;;;;;;11.00;6.00;;;;;11.33;100.00;100759.59;5011421;28;47503;-88
2023/03/12 06:03:25;;;;;;;;;5.67;3.00;;;;;11.26;100.00;100756.03;5020038;28;45902;-85
2023/03/12 06:05:55;;;;;;;;;8.33;5.00;;;;;11.35;100.00;100771.22;5023634;28;45451;-85
2023/03/12 06:08:29;;;;;;;;;9.33;4.67;;;;;11.43;100.00;100773.72;5018648;28;46125;-85
2023/03/12 06:11:40;;;;;;;;;7.33;4.00;;;;;11.47;100.00;100783.25;5009317;28;47607;-86
2023/03/12 06:14:22;;;;;;;;;;;;;;;;;;;;;
2023/03/12 06:16:51;;;;;;;;;9.33;5.67;;;;;11.48;100.00;100784.94;5023030;28;69287;-84
2023/03/12 06:19:23;;;;;;;;;10.33;6.00;;;;;11.26;100.00;100747.81;5001548;28;46080;-84
2023/03/12 06:35:06;;;;;;;;;9.33;5.67;;;;;11.44;100.00;100794.66;4979785;28;45720;-83
2023/03/12 06:37:32;;;;;;;;;14.00;4.00;;;;;11.25;100.00;100762.56;4969648;28;45947;-83
2023/03/12 06:39:57;;;;;;;;;8.33;6.00;;;;;11.54;100.00;100786.00;4976709;28;45277;-82
2023/03/12 06:42:22;;;;;;;;;8.33;5.67;;;;;11.60;100.00;100789.75;4971212;28;46301;-82
2023/03/12 06:44:50;;;;;;;;;8.33;5.00;;;;;11.64;100.00;100789.09;5001150;28;45464;-83
2023/03/12 06:47:16;;;;;;;;;9.33;4.00;;;;;11.69;100.00;100801.38;4999168;28;45742;-82
2023/03/12 06:49:41;;;;;;;;;5.00;2.67;;;;;11.74;100.00;100809.81;4978397;28;45678;-82
2023/03/12 06:52:07;;;;;;;;;8.33;6.00;;;;;11.62;100.00;100796.72;5009576;28;46204;-83
2023/03/12 06:54:32;;;;;;;;;14.33;5.33;;;;;11.61;100.00;100795.03;5001477;28;46698;-85
2023/03/12 06:57:00;;;;;;;;;7.33;3.67;;;;;11.81;100.00;100821.63;5005120;28;45434;-84
2023/03/12 06:59:28;;;;;;;;;13.33;5.00;;;;;11.84;100.00;100824.78;4995762;28;44865;-84
2023/03/12 07:02:24;;;;;;;;;;;;;;;;;;;;;
2023/03/12 07:09:05;;;;;;;;;9.33;6.33;;;;;11.97;100.00;100825.84;4893417;28;44835;-82
2023/03/12 07:11:37;;;;;;;;;8.67;6.00;;;;;11.99;100.00;100832.81;4935362;28;46257;-82
2023/03/12 07:17:47;;;;;;;;;10.33;7.00;;;;;12.08;100.00;100827.94;4949437;28;45561;-83
2023/03/12 07:20:27;;;;;;;;;11.33;5.00;;;;;12.09;100.00;100835.09;4958200;28;45656;-82
2023/03/12 07:25:23;;;;;;;;;10.67;4.67;;;;;12.16;100.00;100830.44;4989192;28;45786;-78
2023/03/12 07:27:51;;;;;;;;;9.00;7.00;;;;;12.16;100.00;100827.69;5008117;28;45842;-80
2023/03/12 07:30:25;;;;;;;;;7.00;6.67;;;;;12.23;100.00;100835.03;5004955;28;46053;-79
2023/03/12 07:32:57;;;;;;;;;12.33;9.00;;;;;12.27;100.00;100830.81;4980991;28;45596;-79
2023/03/12 07:35:22;;;;;;;;;7.33;6.00;;;;;12.27;100.00;100847.31;5000992;28;45411;-79
2023/03/12 07:37:48;;;;;;;;;7.67;5.33;;;;;12.29;100.00;100851.53;4976836;28;47466;-81
2023/03/12 07:40:13;;;;;;;;;7.67;3.67;;;;;12.50;100.00;100875.13;4995576;28;45758;-79
2023/03/12 07:42:39;;;;;;;;;12.33;7.00;;;;;12.69;100.00;100864.25;4997217;28;45516;-80
2023/03/12 07:45:06;;;;;;;;;10.33;5.67;;;;;12.93;100.00;100862.63;4979999;28;48450;-80
2023/03/12 07:47:32;;;;;;;;;8.33;5.67;;;;;13.26;100.00;100867.03;4988141;28;46037;-81
2023/03/12 07:49:59;;;;;;;;;12.67;10.33;;;;;13.41;100.00;100875.88;4994214;28;45560;-78
2023/03/12 07:52:28;;;;;;;;;7.00;3.67;;;;;13.48;100.00;100851.00;4984724;28;45379;-80
2023/03/12 07:54:55;;;;;;;;;7.33;3.67;;;;;13.77;100.00;100866.00;4997555;28;45529;-78
2023/03/12 07:57:24;;;;;;;;;11.33;11.00;;;;;13.91;100.00;100869.47;4992887;28;46475;-81
2023/03/12 07:59:50;;;;;;;;;8.67;7.33;;;;;14.09;100.00;100859.53;4996118;28;45450;-79
2023/03/12 08:02:15;;;;;;;;;18.00;12.67;;;;;14.25;100.00;100847.88;4974146;28;45582;-76
2023/03/12 08:04:41;;;;;;;;;9.67;6.33;;;;;14.38;100.00;100868.09;4979607;28;45444;-78
2023/03/12 08:07:06;;;;;;;;;9.00;5.67;;;;;14.33;100.00;100857.75;4977060;28;46057;-78
2023/03/12 08:09:32;;;;;;;;;15.00;8.33;;;;;14.46;100.00;100870.50;4986694;28;45510;-76
2023/03/12 08:11:57;;;;;;;;;12.00;7.33;;;;;14.41;100.00;100865.69;4979034;28;45435;-80
2023/03/12 08:14:23;;;;;;;;;14.33;9.33;;;;;14.47;100.00;100873.03;4987888;28;45727;-79
2023/03/12 08:16:48;;;;;;;;;12.67;9.67;;;;;14.45;100.00;100849.53;4974292;28;47145;-80
2023/03/12 08:19:17;;;;;;;;;12.67;7.00;;;;;14.63;100.00;100856.97;4987860;28;45440;-80
2023/03/12 08:21:42;;;;;;;;;21.33;14.67;;;;;14.62;100.00;100847.81;4983198;28;45868;-81
2023/03/12 08:24:08;;;;;;;;;6.00;3.00;;;;;14.70;100.00;100868.78;5003730;28;45579;-80
2023/03/12 08:26:34;;;;;;;;;12.67;8.00;;;;;14.77;100.00;100866.72;5006414;28;45704;-80
2023/03/12 08:28:59;;;;;;;;;11.33;7.67;;;;;14.90;100.00;100862.94;5014316;28;45854;-79
2023/03/12 08:31:27;;;;;;;;;10.67;6.33;;;;;14.90;100.00;100879.53;5017859;28;45477;-78
2023/03/12 08:33:55;;;;;;;;;10.00;4.33;;;;;14.83;100.00;100887.06;5015260;28;45940;-82
2023/03/12 08:36:20;;;;;;;;;10.33;4.33;;;;;14.87;100.00;100880.00;5016073;28;45454;-81
2023/03/12 08:38:46;;;;;;;;;13.00;7.00;;;;;14.95;100.00;100885.16;4990679;28;45570;-78
2023/03/12 08:41:11;;;;;;;;;13.00;8.00;;;;;15.14;100.00;100901.69;4995326;28;45411;-78
2023/03/12 08:43:37;;;;;;;;;9.33;4.33;;;;;15.26;100.00;100907.25;5011097;28;45908;-80
2023/03/12 08:46:05;;;;;;;;;8.00;6.33;;;;;15.34;100.00;100910.53;5005947;28;45889;-80
2023/03/12 08:48:31;;;;;;;;;8.67;4.00;;;;;15.57;100.00;100928.25;5008904;28;45549;-79
2023/03/12 08:50:58;;;;;;;;;6.67;4.00;;;;;15.59;100.00;100906.72;4991064;28;45447;-80
2023/03/12 08:53:25;;;;;;;;;5.33;4.00;;;;;15.65;100.00;100925.13;5004528;28;45702;-81
2023/03/12 08:55:53;;;;;;;;;5.00;3.00;;;;;15.59;100.00;100900.34;5011069;28;45451;-78
2023/03/12 08:58:23;;;;;;;;;8.00;5.00;;;;;15.64;100.00;100931.75;5006942;28;45707;-85
2023/03/12 09:00:49;;;;;;;;;10.67;7.33;;;;;15.63;100.00;100935.56;5007919;28;45561;-85
2023/03/12 09:03:15;;;;;;;;;7.33;5.67;;;;;15.53;100.00;100915.97;4983512;28;46798;-82
2023/03/12 09:05:41;;;;;;;;;8.67;5.00;;;;;15.57;100.00;100925.47;5002674;28;45675;-81
2023/03/12 09:08:11;;;;;;;;;7.00;4.33;;;;;15.48;100.00;100904.78;5016939;28;45654;-82
2023/03/12 09:10:37;;;;;;;;;7.00;4.67;;;;;15.65;100.00;100924.28;5009633;28;45267;-81
2023/03/12 09:13:07;;;;;;;;;6.00;3.67;;;;;15.76;100.00;100914.31;4996354;28;47173;-79
2023/03/12 09:15:36;;;;;;;;;10.00;5.67;;;;;15.86;100.00;100936.72;4999918;28;46836;-80
2023/03/12 09:18:01;;;;;;;;;9.67;7.33;;;;;15.80;100.00;100927.44;5006657;28;45686;-80
2023/03/12 09:20:27;;;;;;;;;6.67;2.33;;;;;15.82;100.00;100928.06;5004216;28;45450;-80
2023/03/12 09:22:53;;;;;;;;;6.33;4.00;;;;;15.85;100.00;100929.50;5004619;28;45643;-81
2023/03/12 09:25:19;;;;;;;;;5.00;2.00;;;;;15.91;100.00;100931.28;4995896;28;48002;-78
2023/03/12 09:28:00;;;;;;;;;7.00;4.00;;;;;15.86;100.00;100920.94;5003270;28;45833;-79
2023/03/12 09:30:28;;;;;;;;;7.33;4.00;;;;;15.99;100.00;100916.28;5009793;28;45553;-81
2023/03/12 09:32:54;;;;;;;;;6.33;3.67;;;;;16.20;100.00;100926.72;5006549;28;45580;-81
2023/03/12 09:35:19;;;;;;;;;6.00;3.00;;;;;16.06;100.00;100933.56;4998252;28;47667;-83
2023/03/12 09:37:48;;;;;;;;;3.33;3.00;;;;;16.10;100.00;100939.50;5005996;28;45682;-83
2023/03/12 09:40:18;;;;;;;;;6.00;4.00;;;;;16.19;100.00;100938.88;5010067;28;45398;-83
2023/03/12 09:42:52;;;;;;;;;6.33;4.00;;;;;16.27;100.00;100934.06;5013714;28;45543;-83
2023/03/12 09:45:27;;;;;;;;;5.00;2.33;;;;;16.62;100.00;100920.16;5011750;28;45671;-85
2023/03/12 09:48:06;;;;;;;;;7.67;6.00;;;;;16.75;100.00;100925.41;5019986;28;45643;-84
2023/03/12 09:50:42;;;;;;;;;7.33;3.67;;;;;16.81;100.00;100928.28;5018211;28;45449;-82
2023/03/12 09:53:10;;;;;;;;;6.33;4.67;;;;;16.78;100.00;100924.06;5014292;28;45714;-79
2023/03/12 09:55:56;;;;;;;;;6.67;3.00;;;;;16.70;100.00;100916.16;5020041;28;46524;-83
2023/03/12 09:58:31;;;;;;;;;4.33;1.33;;;;;16.59;100.00;100909.56;5012718;28;45613;-82
2023/03/12 10:01:36;;;;;;;;;8.00;3.00;;;;;16.67;100.00;100927.72;5003744;28;45873;-84
2023/03/12 10:04:20;;;;;;;;;6.00;3.00;;;;;16.62;100.00;100936.78;5002507;28;45849;-83
2023/03/12 10:06:48;;;;;;;;;5.67;3.67;;;;;16.46;100.00;100940.28;5008269;28;45546;-81
2023/03/12 10:09:38;;;;;;;;;4.00;4.00;;;;;16.73;100.00;100927.56;5000374;28;45924;-79
2023/03/12 10:12:15;;;;;;;;;8.00;3.33;;;;;18.38;100.00;100933.19;5002568;28;45785;-81
2023/03/12 10:14:53;;;;;;;;;4.33;2.00;;;;;19.97;100.00;100928.53;5003903;28;45767;-80
2023/03/12 10:17:37;;;;;;;;;7.67;2.00;;;;;21.50;100.00;100927.50;5007486;28;46324;-82
2023/03/12 10:20:18;;;;;;;;;7.00;3.33;;;;;22.82;100.00;100925.88;5006450;28;45367;-80
2023/03/12 10:23:00;;;;;;;;;3.33;2.67;;;;;22.63;100.00;100925.69;4998314;28;45989;-86
2023/03/12 10:25:35;;;;;;;;;5.67;2.00;;;;;22.36;100.00;100926.88;4999515;28;45826;-81
2023/03/12 10:28:17;;;;;;;;;5.50;2.25;;;;;21.61;97.86;100928.34;4999529;28;45746;-81
2023/03/12 10:30:52;;;;;;;;;6.67;2.00;;;;;21.00;97.99;100901.16;5012597;28;45318;-81
2023/03/12 10:33:18;;;;;;;;;3.00;3.00;;;;;20.70;100.00;100938.16;5009913;28;45651;-84
2023/03/12 10:35:44;;;;;;;;;4.00;2.25;;;;;20.18;100.00;100921.16;4992741;28;46171;-79
2023/03/12 10:38:16;;;;;;;;;7.50;4.00;;;;;19.76;100.00;100938.66;5010720;28;45418;-81
2023/03/12 10:40:41;;;;;;;;;3.75;3.00;;;;;19.10;100.00;100920.25;5007438;28;46077;-80
2023/03/12 10:43:08;;;;;;;;;8.67;4.33;;;;;18.73;100.00;100933.94;5006465;28;45694;-79
2023/03/12 10:45:46;;;;;;;;;6.33;4.00;;;;;19.20;100.00;100933.38;4998558;28;45846;-79
2023/03/12 10:48:29;;;;;;;;;7.33;3.00;;;;;19.26;100.00;100928.72;5022271;28;46727;-86
2023/03/12 10:51:27;;;;;;;;;4.67;3.00;;;;;19.22;100.00;100912.56;5025613;28;44807;-85
2023/03/12 10:53:54;;;;;;;;;6.67;1.33;;;;;19.25;100.00;100927.88;5024272;28;45433;-86
2023/03/12 10:56:20;;;;;;;;;3.00;1.33;;;;;19.14;100.00;100914.97;5004663;28;45543;-85
2023/03/12 10:58:49;;;;;;;;;5.00;3.00;;;;;19.15;100.00;100911.94;5004091;28;46184;-87
2023/03/12 11:01:22;;;;;;;;;6.67;3.33;;;;;19.21;100.00;100929.53;5001437;28;45837;-83
2023/03/12 11:03:50;;;;;;;;;10.00;3.00;;;;;19.25;100.00;100924.25;5016732;28;45273;-86
2023/03/12 11:06:20;;;;;;;;;3.00;2.00;;;;;19.16;100.00;100924.75;5006964;28;45686;-87
2023/03/12 11:09:09;;;;;;;;;3.33;3.33;;;;;19.08;100.00;100916.03;5020472;28;45441;-85
2023/03/12 11:11:35;;;;;;;;;4.67;2.67;;;;;18.55;100.00;100860.09;5022170;28;45398;-87
2023/03/12 11:14:21;;;;;;;;;3.00;2.33;;;;;18.75;100.00;100924.25;5010821;28;45358;-85
2023/03/12 11:16:51;;;;;;;;;4.00;2.33;;;;;18.42;100.00;100920.50;5011701;28;46946;-83
2023/03/12 11:19:30;;;;;;;;;3.33;2.00;;;;;18.13;100.00;100912.31;5003194;28;47211;-87
2023/03/12 11:22:03;;;;;;;;;4.33;3.33;;;;;18.05;100.00;100918.31;5015135;28;45351;-86
2023/03/12 11:24:28;;;;;;;;;3.33;2.33;;;;;17.88;100.00;100921.06;5013372;28;45331;-83
2023/03/12 11:27:35;;;;;;;;;3.33;2.67;;;;;17.79;100.00;100928.97;5021622;28;45303;-83
2023/03/12 11:30:03;;;;;;;;;4.00;4.00;;;;;17.72;100.00;100925.53;5022587;28;46177;-85
2023/03/12 11:32:36;;;;;;;;;8.67;2.00;;;;;17.43;100.00;100900.66;5011816;28;45790;-84
2023/03/12 11:35:07;;;;;;;;;4.00;2.67;;;;;17.59;100.00;100928.63;5012963;28;45670;-82
2023/03/12 11:37:54;;;;;;;;;7.33;4.00;;;;;17.64;100.00;100923.19;5026248;28;45625;-86
2023/03/12 11:40:41;;;;;;;;;7.67;2.00;;;;;17.67;100.00;100921.84;5009398;28;45772;-85
2023/03/12 11:43:37;;;;;;;;;4.33;2.00;;;;;17.65;100.00;100920.16;5016396;28;45329;-82
2023/03/12 11:46:24;;;;;;;;;4.00;3.67;;;;;17.64;100.00;100921.25;5012500;28;45469;-81
2023/03/12 11:48:54;;;;;;;;;5.33;2.00;;;;;17.58;100.00;100918.66;5011924;28;45765;-82
2023/03/12 11:51:25;;;;;;;;;4.33;3.33;;;;;17.40;100.00;100925.28;5021557;28;45407;-78